createdAt,value
2022-08-28T00:01:43.083Z,12.43
2022-08-28T00:05:53.695Z,11.30
2022-08-28T00:09:54.651Z,11.10
2022-08-28T00:13:56.709Z,10.27
2022-08-28T00:17:58.928Z,11.23
2022-08-28T00:22:00.768Z,10.00
2022-08-28T00:26:02.760Z,8.23
2022-08-28T00:30:04.789Z,8.80
2022-08-28T00:34:07.304Z,8.67
2022-08-28T00:38:10.180Z,8.47
2022-08-28T00:42:11.822Z,9.77
2022-08-28T00:46:16.446Z,9.43
2022-08-28T00:50:20.805Z,9.23
2022-08-28T00:54:23.018Z,8.80
2022-08-28T00:58:24.014Z,9.30
2022-08-28T01:02:26.966Z,8.40
2022-08-28T01:06:28.121Z,8.27
2022-08-28T01:10:31.745Z,7.30
2022-08-28T01:14:35.657Z,8.00
2022-08-28T01:18:36.943Z,8.07
2022-08-28T01:22:41.656Z,6.90
2022-08-28T01:26:42.963Z,6.90
2022-08-28T01:30:47.296Z,5.13
2022-08-28T01:34:48.339Z,6.57
2022-08-28T01:38:55.813Z,6.33
2022-08-28T01:43:09.947Z,7.27
2022-08-28T01:47:10.924Z,6.60
2022-08-28T01:51:12.926Z,7.27
2022-08-28T01:55:13.919Z,7.37
2022-08-28T01:59:15.106Z,6.30
2022-08-28T02:03:16.315Z,6.10
2022-08-28T02:07:17.770Z,6.03
2022-08-28T02:11:18.847Z,6.60
2022-08-28T02:15:19.844Z,5.70
2022-08-28T02:19:22.775Z,6.57
2022-08-28T02:23:23.875Z,5.97
2022-08-28T02:27:24.960Z,5.13
2022-08-28T02:31:27.018Z,5.73
2022-08-28T02:35:28.224Z,5.60
2022-08-28T02:39:29.322Z,7.00
2022-08-28T02:43:30.507Z,5.77
2022-08-28T02:47:31.490Z,6.07
2022-08-28T02:51:33.075Z,5.40
2022-08-28T02:55:34.369Z,7.07
2022-08-28T02:59:36.199Z,7.13
2022-08-28T03:03:39.011Z,7.53
2022-08-28T03:07:42.191Z,7.30
2022-08-28T03:11:43.207Z,6.20
2022-08-28T03:15:45.223Z,5.77
2022-08-28T03:19:47.107Z,6.53
2022-08-28T03:23:48.244Z,6.07
2022-08-28T03:27:50.140Z,5.67
2022-08-28T03:31:52.098Z,5.97
2022-08-28T03:35:54.669Z,5.40
2022-08-28T03:39:55.615Z,5.53
2022-08-28T03:44:02.256Z,4.83
2022-08-28T03:48:04.235Z,5.07
2022-08-28T03:52:05.931Z,4.80
2022-08-28T03:56:10.172Z,5.37
2022-08-28T04:00:12.881Z,5.37
2022-08-28T04:04:14.301Z,5.03
2022-08-28T04:08:17.521Z,5.90
2022-08-28T04:12:18.620Z,5.50
2022-08-28T04:16:19.733Z,4.20
2022-08-28T04:20:21.082Z,5.17
2022-08-28T04:24:22.292Z,5.73
2022-08-28T04:28:25.300Z,5.57
2022-08-28T04:32:26.319Z,4.43
2022-08-28T04:36:28.036Z,4.77
2022-08-28T04:40:28.999Z,4.70
2022-08-28T04:44:30.198Z,4.67
2022-08-28T04:48:31.300Z,4.40
2022-08-28T04:52:32.454Z,5.43
2022-08-28T04:56:33.975Z,5.33
2022-08-28T05:00:37.482Z,4.30
2022-08-28T05:04:40.403Z,4.77
2022-08-28T05:08:41.833Z,5.33
2022-08-28T05:12:42.825Z,4.23
2022-08-28T05:16:47.344Z,4.20
2022-08-28T05:20:48.314Z,4.97
2022-08-28T05:24:49.386Z,4.00
2022-08-28T05:28:50.604Z,5.10
2022-08-28T05:32:51.637Z,4.10
2022-08-28T05:36:53.006Z,4.50
2022-08-28T05:40:54.825Z,3.80
2022-08-28T05:44:57.977Z,4.27
2022-08-28T05:49:01.807Z,4.47
2022-08-28T05:53:02.946Z,4.30
2022-08-28T05:57:04.382Z,3.47
2022-08-28T06:01:14.859Z,3.40
2022-08-28T06:05:15.986Z,3.33
2022-08-28T06:09:29.355Z,4.83
2022-08-28T06:13:29.947Z,3.93
2022-08-28T06:17:30.887Z,3.20
2022-08-28T06:21:33.003Z,3.67
2022-08-28T06:25:44.358Z,4.40
2022-08-28T06:29:45.288Z,3.93
2022-08-28T06:33:46.406Z,4.37
2022-08-28T06:37:47.575Z,3.50
2022-08-28T06:41:48.751Z,3.73
2022-08-28T06:45:53.030Z,4.03
2022-08-28T06:49:54.200Z,3.97
2022-08-28T06:53:56.355Z,3.70
2022-08-28T06:57:57.531Z,3.30
2022-08-28T07:01:58.880Z,3.47
2022-08-28T07:06:01.375Z,4.40
2022-08-28T07:10:03.341Z,3.10
2022-08-28T07:14:04.726Z,3.50
2022-08-28T07:18:05.935Z,4.03
2022-08-28T07:22:06.911Z,4.13
2022-08-28T07:26:11.741Z,3.10
2022-08-28T07:30:12.994Z,3.23
2022-08-28T07:34:15.515Z,3.63
2022-08-28T07:38:16.739Z,4.97
2022-08-28T07:42:36.356Z,3.50
2022-08-28T07:46:38.996Z,3.43
2022-08-28T07:50:41.438Z,3.60
2022-08-28T07:54:42.580Z,3.07
2022-08-28T07:58:43.581Z,3.03
2022-08-28T08:02:44.627Z,3.20
2022-08-28T08:06:46.215Z,3.90
2022-08-28T08:11:02.862Z,3.50
2022-08-28T08:15:05.198Z,3.70
2022-08-28T08:19:12.826Z,3.43
2022-08-28T08:23:14.944Z,4.03
2022-08-28T08:27:15.941Z,4.17
2022-08-28T08:31:24.179Z,3.33
2022-08-28T08:35:25.566Z,3.87
2022-08-28T08:39:26.773Z,3.67
2022-08-28T08:43:31.417Z,3.27
2022-08-28T08:47:45.033Z,3.13
2022-08-28T08:51:49.794Z,3.83
2022-08-28T08:55:53.304Z,3.17
2022-08-28T08:59:54.546Z,3.50
2022-08-28T09:04:00.075Z,4.17
2022-08-28T09:08:04.017Z,3.60
2022-08-28T09:12:08.543Z,3.90
2022-08-28T09:16:19.048Z,3.57
2022-08-28T09:20:32.273Z,3.90
2022-08-28T09:24:36.522Z,4.13
2022-08-28T09:28:40.456Z,3.60
2022-08-28T09:32:44.974Z,4.23
2022-08-28T09:36:46.548Z,3.90
2022-08-28T09:41:27.818Z,3.87
2022-08-28T09:45:29.147Z,3.87
2022-08-28T09:49:30.307Z,3.90
2022-08-28T09:53:35.039Z,3.03
2022-08-28T09:57:36.353Z,3.47
2022-08-28T10:01:50.760Z,3.60
2022-08-28T10:06:10.820Z,3.90
2022-08-28T10:10:35.578Z,3.43
2022-08-28T10:15:01.177Z,3.73
2022-08-28T10:19:09.483Z,3.13
2022-08-28T10:23:35.939Z,3.57
2022-08-28T10:27:56.177Z,3.70
2022-08-28T10:32:10.427Z,3.60
2022-08-28T10:36:28.766Z,3.33
2022-08-28T10:40:28.346Z,3.17
2022-08-28T10:44:36.259Z,3.40
2022-08-28T10:48:45.858Z,3.23
2022-08-28T10:52:56.832Z,3.70
2022-08-28T10:57:07.884Z,4.13
2022-08-28T11:01:14.971Z,4.27
2022-08-28T11:05:20.046Z,2.43
2022-08-28T11:09:33.989Z,4.73
2022-08-28T11:13:47.911Z,4.47
2022-08-28T11:17:49.759Z,2.97
2022-08-28T11:21:54.470Z,6.10
2022-08-28T11:25:59.296Z,3.77
2022-08-28T11:30:28.967Z,4.53
2022-08-28T11:34:55.551Z,4.10
2022-08-28T11:39:00.428Z,3.67
2022-08-28T11:43:18.076Z,4.30
2022-08-28T11:47:35.510Z,4.27
2022-08-28T11:51:46.381Z,4.47
2022-08-28T11:56:09.032Z,4.73
2022-08-28T12:00:30.692Z,4.47
2022-08-28T12:04:35.683Z,6.00
2022-08-28T12:08:55.619Z,4.50
2022-08-28T12:13:03.146Z,4.70
2022-08-28T12:17:26.857Z,5.20
2022-08-28T12:21:29.101Z,5.47
2022-08-28T12:25:39.912Z,5.60
2022-08-28T12:29:50.223Z,5.57
2022-08-28T12:33:55.157Z,4.77
2022-08-28T12:38:00.609Z,4.30
2022-08-28T12:42:03.085Z,3.93
2022-08-28T12:46:08.008Z,5.00
2022-08-28T12:50:22.942Z,5.43
2022-08-28T12:54:23.988Z,4.80
2022-08-28T12:58:31.649Z,4.93
2022-08-28T13:02:34.098Z,4.70
2022-08-28T13:06:38.091Z,4.57
2022-08-28T13:10:48.286Z,4.73
2022-08-28T13:14:52.045Z,4.10
2022-08-28T13:19:09.040Z,5.33
2022-08-28T13:23:14.091Z,4.70
2022-08-28T13:27:18.987Z,5.17
2022-08-28T13:31:24.264Z,3.83
2022-08-28T13:35:29.290Z,5.00
2022-08-28T13:39:33.130Z,5.30
2022-08-28T13:43:45.576Z,4.30
2022-08-28T13:47:46.861Z,4.53
2022-08-28T13:51:48.881Z,4.53
2022-08-28T13:55:51.922Z,5.40
2022-08-28T13:59:55.684Z,4.77
2022-08-28T14:03:58.370Z,5.13
2022-08-28T14:07:59.438Z,5.30
2022-08-28T14:12:02.067Z,4.47
2022-08-28T14:16:06.127Z,5.40
2022-08-28T14:20:08.953Z,4.43
2022-08-28T14:24:10.159Z,4.43
2022-08-28T14:28:13.597Z,3.60
2022-08-28T14:32:15.064Z,5.33
2022-08-28T14:36:22.452Z,4.20
2022-08-28T14:40:23.737Z,4.20
2022-08-28T14:44:26.892Z,4.40
2022-08-28T14:48:29.024Z,4.23
2022-08-28T14:52:30.512Z,4.43
2022-08-28T14:56:32.083Z,5.23
2022-08-28T15:00:39.432Z,4.20
2022-08-28T15:04:40.732Z,3.77
2022-08-28T15:08:42.394Z,3.50
2022-08-28T15:12:43.997Z,3.47
2022-08-28T15:16:48.644Z,3.50
2022-08-28T15:20:49.883Z,3.40
2022-08-28T15:24:52.812Z,4.27
2022-08-28T15:28:58.783Z,3.87
2022-08-28T15:33:00.165Z,3.67
2022-08-28T15:37:01.718Z,3.30
2022-08-28T15:41:23.532Z,3.23
2022-08-28T15:45:26.406Z,3.40
2022-08-28T15:49:30.346Z,3.33
2022-08-28T15:53:34.176Z,3.90
2022-08-28T15:57:35.688Z,3.40
2022-08-28T16:01:38.056Z,3.40
2022-08-28T16:05:40.936Z,2.97
2022-08-28T16:09:42.637Z,2.67
2022-08-28T16:13:45.025Z,3.20
2022-08-28T16:17:46.234Z,2.80
2022-08-28T16:21:47.676Z,3.10
2022-08-28T16:25:48.968Z,2.70
2022-08-28T16:29:52.828Z,3.33
2022-08-28T16:33:54.289Z,3.03
2022-08-28T16:37:55.903Z,3.07
2022-08-28T16:41:57.159Z,2.70
2022-08-28T16:45:59.173Z,2.53
2022-08-28T16:50:03.056Z,2.60
2022-08-28T16:54:06.261Z,3.50
2022-08-28T16:58:07.586Z,2.97
2022-08-28T17:02:09.365Z,3.37
2022-08-28T17:06:18.994Z,3.63
2022-08-28T17:10:22.232Z,2.53
2022-08-28T17:14:23.846Z,2.57
2022-08-28T17:18:25.358Z,2.80
2022-08-28T17:22:32.749Z,3.67
2022-08-28T17:26:33.835Z,2.63
2022-08-28T17:30:35.031Z,2.63
2022-08-28T17:34:37.481Z,2.90
2022-08-28T17:38:40.253Z,2.57
2022-08-28T17:42:42.613Z,2.23
2022-08-28T17:46:44.478Z,2.70
2022-08-28T17:50:45.734Z,2.20
2022-08-28T17:54:47.157Z,2.17
2022-08-28T17:58:48.871Z,2.60
2022-08-28T18:02:51.729Z,2.30
2022-08-28T18:06:53.622Z,1.97
2022-08-28T18:10:54.969Z,1.97
2022-08-28T18:14:58.228Z,2.73
2022-08-28T18:19:00.440Z,2.13
2022-08-28T18:23:02.025Z,2.13
2022-08-28T18:27:04.708Z,2.00
2022-08-28T18:31:06.699Z,1.90
2022-08-28T18:35:08.083Z,2.37
2022-08-28T18:39:09.457Z,2.60
2022-08-28T18:43:11.929Z,2.47
2022-08-28T18:47:13.770Z,2.10
2022-08-28T18:51:15.017Z,2.60
2022-08-28T18:55:19.352Z,2.40
2022-08-28T18:59:21.102Z,2.43
2022-08-28T19:03:22.524Z,2.57
2022-08-28T19:07:23.641Z,2.70
2022-08-28T19:11:25.138Z,2.30
2022-08-28T19:15:26.500Z,1.93
2022-08-28T19:19:28.201Z,2.30
2022-08-28T19:23:29.319Z,2.53
2022-08-28T19:27:30.507Z,2.53
2022-08-28T19:31:31.585Z,2.27
2022-08-28T19:35:33.400Z,2.43
2022-08-28T19:39:34.619Z,2.40
2022-08-28T19:43:42.627Z,2.53
2022-08-28T19:47:39.719Z,3.10
2022-08-28T19:51:41.844Z,2.87
2022-08-28T19:55:43.137Z,2.93
2022-08-28T19:59:44.983Z,2.47
2022-08-28T20:03:47.148Z,2.50
2022-08-28T20:07:48.365Z,3.73
2022-08-28T20:11:50.289Z,3.40
2022-08-28T20:15:54.479Z,3.93
2022-08-28T20:20:02.381Z,4.80
2022-08-28T20:24:01.554Z,4.83
2022-08-28T20:28:04.145Z,5.07
2022-08-28T20:32:05.397Z,5.10
2022-08-28T20:36:07.785Z,4.33
2022-08-28T20:40:11.684Z,4.80
2022-08-28T20:44:15.625Z,4.67
2022-08-28T20:48:16.733Z,4.77
2022-08-28T20:52:17.808Z,4.87
2022-08-28T20:56:19.147Z,4.23
2022-08-28T21:00:20.654Z,4.30
2022-08-28T21:04:22.964Z,4.00
2022-08-28T21:08:24.161Z,4.03
2022-08-28T21:12:25.526Z,3.47
2022-08-28T21:16:26.707Z,2.67
2022-08-28T21:20:28.554Z,6.20
2022-08-28T21:24:31.131Z,6.87
2022-08-28T21:28:32.455Z,3.97
2022-08-28T21:32:34.964Z,3.10
2022-08-28T21:36:37.776Z,4.20
2022-08-28T21:40:42.003Z,3.30
2022-08-28T21:44:51.554Z,2.80
2022-08-28T21:48:55.373Z,3.83
2022-08-28T21:52:56.521Z,3.80
2022-08-28T21:56:58.658Z,3.70
2022-08-28T22:01:00.484Z,3.20
2022-08-28T22:05:02.064Z,3.83
2022-08-28T22:09:04.328Z,3.33
2022-08-28T22:13:06.666Z,3.53
2022-08-28T22:17:12.099Z,3.00
2022-08-28T22:21:33.106Z,3.80
2022-08-28T22:25:40.807Z,2.67
2022-08-28T22:29:37.225Z,3.50
2022-08-28T22:33:38.429Z,4.37
2022-08-28T22:37:39.525Z,3.37
2022-08-28T22:41:41.334Z,3.37
2022-08-28T22:45:43.497Z,4.00
2022-08-28T22:49:44.469Z,3.33
2022-08-28T22:53:46.490Z,4.60
2022-08-28T22:57:47.879Z,3.53
2022-08-28T23:01:48.982Z,3.87
2022-08-28T23:05:50.909Z,3.83
2022-08-28T23:09:51.945Z,3.13
2022-08-28T23:13:53.349Z,3.77
2022-08-28T23:17:54.374Z,3.57
2022-08-28T23:21:55.375Z,3.63
2022-08-28T23:25:56.377Z,3.93
2022-08-28T23:30:00.682Z,4.20
2022-08-28T23:34:02.126Z,3.87
2022-08-28T23:38:04.038Z,4.60
2022-08-28T23:42:06.823Z,3.73
2022-08-28T23:46:08.883Z,4.50
2022-08-28T23:50:15.618Z,3.47
2022-08-28T23:54:19.587Z,3.57
2022-08-28T23:58:22.521Z,3.93
